Pagina principală
METAR-TAF:

METAR-TAF

Aeroporturi :

Aoba Island, Vanuatu

Latitudine: 15-18-24S, longitudine: 167-58-02E, elevație: 51 m

Observații meteo curente

Raportul a fost făcut în urmă cu 15 ore și 33 de minute, la 21:00 UTC
Vânt 5 kt de la Est
Temperatură 27°C
Umiditate 89%
Presiune 1014 hPa
Vizibilitate de 10 km sau mai mult
Nori fragmentați la o înălțime de 1800 picior

METAR: NVSG 272100Z 10005KT 9999 BKN018 27/25 Q1014

Ora: 23:33 (12:33 UTC)

Prognoză

Raportul a fost făcut în urmă cu 1 oră și 33 de minute, la 11:00 UTC
Prognoză valabilă de la 28 ora 12 UTC la 29 ora 12 UTC
Vânt 3 kt din direcții variabile
Vizibilitate de 10 km sau mai mult
Nori împrăștiați la o înălțime de 2000 picior

TAF: NVSG 281100Z 2812/2912 VRB03KT 9999 SCT020

Observații și prognoze meteo pentru peste 4.000 de aeroporturi (rapoarte METAR și TAF).

Stațiile disponibile sunt reprezentate pe hartă prin puncte galbene și roșii.

Țineți indicatorul mouse-ului pe punctul dorit pentru a vedea denumirea stației.

Apoi, faceți clic pentru a vedea observațiile și prognozele meteorologice.

Pentru a schimba harta: Pentru mărire, faceți clic pe butoanele verzi cu cruce neagră; pentru micșorare, pe butonul verde cu o liniuță; pentru hărți învecinate, pe săgețile verzi.


METAR-TAF: